This is the latest recevied weather packets stored in our database for station/object LB9CG. If no packets are shown the sender has not sent any weather packets the latest 10 day(s).
| Time | Temp. | Humidity | Pressure | Rain* | Wind** | Luminosity | Snow |
|---|---|---|---|---|---|---|---|
| 1778073616 | 3.89° C | 90% | 1009.5 hPa | 0 mm | - | - | - |
| 1778070616 | 2.78° C | 91% | 1009.2 hPa | 0 mm | - | - | - |
| 1778067016 | 6.67° C | 75% | 1008.6 hPa | 0 mm | - | - | - |
| 1778066418 | 5.56° C | 78% | 1008.6 hPa | 0 mm | - | - | - |
| 1778065838 | 6.11° C | 75% | 1008.5 hPa | 0 mm | - | - | - |
| 1778064637 | 6.11° C | 78% | 1008.3 hPa | 0 mm | - | - | - |
| 1778061617 | 4.44° C | 91% | 1007.9 hPa | 0 mm | - | - | - |
| 1778056817 | 4.44° C | 89% | 1007.5 hPa | 0 mm | - | - | - |
| 1778050217 | 4.44° C | 86% | 1006.9 hPa | 0 mm | - | - | - |
| 1778048417 | 3.89° C | 87% | 1006.6 hPa | 0 mm | - | - | - |
| 1778045417 | 4.44° C | 93% | 1006.3 hPa | 0 mm | - | - | - |
| 1778038216 | 1.11° C | 95% | 1005.6 hPa | 0 mm | - | - | - |
| 1778037017 | 1.11° C | 95% | 1005.8 hPa | 0 mm | - | - | - |
| 1778035216 | 1.11° C | 94% | 1006.2 hPa | 0 mm | - | - | - |
| 1778033416 | 1.67° C | 93% | 1005.5 hPa | 0 mm | - | - | - |
| 1778031016 | 1.67° C | 94% | 1005.7 hPa | 0 mm | - | - | - |
| 1778030416 | 1.67° C | 94% | 1005.5 hPa | 0 mm | - | - | - |
| 1778025016 | 2.78° C | 92% | 1005 hPa | 0 mm | - | - | - |
| 1778018416 | 1.67° C | 94% | 1004.9 hPa | 0 mm | - | - | - |
| 1778016616 | 1.11° C | 93% | 1004.9 hPa | 0 mm | - | - | - |
| 1778013016 | 2.22° C | 91% | 1004.8 hPa | 0 mm | - | - | - |
| 1778010016 | 2.22° C | 92% | 1004.6 hPa | 0 mm | - | - | - |
| 1778008816 | 2.22° C | 89% | 1004.6 hPa | 0 mm | - | - | - |
| 1778008216 | 2.22° C | 88% | 1004.5 hPa | 0 mm | - | - | - |
| 1778005836 | 2.22° C | 87% | 1004.7 hPa | 0 mm | - | - | - |
* Rain latest hour (hover to see other rain measurements)
** Current wind speed in m/s (hover to see current wind gust speed)